Time;durP1;ratioP1;P1;durP2;ratioP2;P2;SDS_P1;SDS_P2;PMS_P1;PMS_P2;Temp;Humidity;BMP_temperature;BMP_pressure;BME280_temperature;BME280_humidity;BME280_pressure;Samples;Min_cycle;Max_cycle;Signal;HPM_P1;HPM_P2
2023/07/19 00:00:39;;;;;;;5.55;2.90;;;;;;;18.39;67.78;100902.81;5022265;28;20534;-60
2023/07/19 00:03:04;;;;;;;4.88;3.10;;;;;;;18.33;67.89;100901.28;5022236;28;20040;-59
2023/07/19 00:05:30;;;;;;;5.85;2.85;;;;;;;18.30;67.90;100896.19;5027826;28;20021;-62
2023/07/19 00:07:56;;;;;;;4.53;2.50;;;;;;;18.27;68.06;100884.97;5031156;28;20027;-63
2023/07/19 00:10:21;;;;;;;3.70;2.75;;;;;;;18.27;68.00;100887.59;5033555;28;20837;-63
2023/07/19 00:12:47;;;;;;;4.85;3.10;;;;;;;18.27;68.48;100879.72;5029694;28;20065;-63
2023/07/19 00:15:12;;;;;;;6.93;3.03;;;;;;;18.27;68.80;100871.88;5032754;28;20091;-62
2023/07/19 00:17:38;;;;;;;5.15;2.83;;;;;;;18.26;68.70;100878.00;5027439;28;20053;-63
2023/07/19 00:20:04;;;;;;;4.60;2.78;;;;;;;18.25;68.45;100871.09;5031293;28;20038;-63
2023/07/19 00:22:30;;;;;;;6.32;2.72;;;;;;;18.24;68.19;100866.75;5035049;28;20036;-63
2023/07/19 00:24:56;;;;;;;5.75;2.92;;;;;;;18.22;68.17;100864.22;5033050;28;20040;-63
2023/07/19 00:27:21;;;;;;;4.03;2.22;;;;;;;18.21;68.19;100865.13;5029647;28;20033;-62
2023/07/19 00:29:47;;;;;;;6.75;2.75;;;;;;;18.17;68.40;100871.38;5029826;28;20041;-62
2023/07/19 00:32:12;;;;;;;5.20;2.53;;;;;;;18.14;68.41;100866.25;5029558;28;20064;-62
2023/07/19 00:34:37;;;;;;;4.75;2.60;;;;;;;18.11;68.32;100868.13;5030439;28;20033;-62
2023/07/19 00:37:03;;;;;;;4.20;2.60;;;;;;;18.08;68.29;100869.09;5033117;28;20068;-62
2023/07/19 00:39:28;;;;;;;5.07;2.45;;;;;;;18.06;68.46;100862.22;5028953;28;20044;-62
2023/07/19 00:41:53;;;;;;;3.97;2.45;;;;;;;18.03;68.64;100862.34;5030161;28;20387;-61
2023/07/19 00:44:19;;;;;;;6.43;2.85;;;;;;;18.01;68.62;100866.78;5031821;28;20045;-63
2023/07/19 00:46:45;;;;;;;5.32;2.63;;;;;;;17.97;68.92;100872.13;5031662;28;20033;-63
2023/07/19 00:49:10;;;;;;;7.50;2.75;;;;;;;17.94;69.11;100871.38;5021952;28;20037;-63
2023/07/19 00:51:37;;;;;;;5.78;2.80;;;;;;;17.90;69.45;100870.63;5023520;28;20040;-64
2023/07/19 00:54:04;;;;;;;6.25;2.55;;;;;;;17.87;69.55;100868.13;5029003;28;20041;-64
2023/07/19 00:56:30;;;;;;;4.22;2.58;;;;;;;17.82;69.57;100867.41;5028437;28;20048;-63
2023/07/19 00:58:57;;;;;;;5.80;3.20;;;;;;;17.80;69.68;100871.88;5021681;28;20024;-63
2023/07/19 01:01:23;;;;;;;6.80;3.10;;;;;;;17.78;69.69;100865.00;5022152;28;20053;-64
2023/07/19 01:03:48;;;;;;;6.03;3.25;;;;;;;17.73;70.22;100865.13;5021935;28;20057;-64
2023/07/19 01:06:14;;;;;;;6.93;3.28;;;;;;;17.66;70.34;100868.88;5024422;28;20045;-63
2023/07/19 01:08:40;;;;;;;5.85;3.08;;;;;;;17.60;70.66;100863.03;5022902;28;20045;-59
2023/07/19 01:11:05;;;;;;;6.15;2.97;;;;;;;17.55;70.95;100870.16;5029879;28;20112;-60
2023/07/19 01:13:31;;;;;;;5.95;3.05;;;;;;;17.51;70.87;100869.44;5034570;28;20095;-61
2023/07/19 01:15:57;;;;;;;7.18;2.92;;;;;;;17.50;70.84;100864.25;5043701;28;20045;-64
2023/07/19 01:18:22;;;;;;;4.15;2.75;;;;;;;17.47;70.96;100848.69;5031339;28;20482;-63
2023/07/19 01:20:47;;;;;;;5.57;2.83;;;;;;;17.47;71.23;100859.13;5038483;28;20052;-64
2023/07/19 01:23:13;;;;;;;5.28;2.88;;;;;;;17.44;71.23;100862.72;5037490;28;20083;-63
2023/07/19 01:25:38;;;;;;;8.07;2.80;;;;;;;17.41;71.20;100868.91;5036903;28;20068;-64
2023/07/19 01:28:05;;;;;;;5.90;2.90;;;;;;;17.39;71.46;100862.84;5041297;28;20033;-63
2023/07/19 01:30:31;;;;;;;4.55;2.67;;;;;;;17.37;71.50;100862.06;5040423;28;20084;-63
2023/07/19 01:32:56;;;;;;;6.57;2.72;;;;;;;17.35;71.42;100863.03;5035649;28;20452;-62
2023/07/19 01:35:22;;;;;;;4.13;3.03;;;;;;;17.31;71.65;100864.03;5038969;28;20025;-61
2023/07/19 01:37:48;;;;;;;5.40;2.70;;;;;;;17.28;71.90;100861.50;5038096;28;20739;-64
2023/07/19 01:40:13;;;;;;;6.82;3.33;;;;;;;17.19;72.56;100852.25;5032886;28;20588;-64
2023/07/19 01:42:39;;;;;;;7.57;3.08;;;;;;;17.10;72.77;100849.94;5038841;28;20528;-64
2023/07/19 01:45:05;;;;;;;8.93;3.00;;;;;;;17.06;73.01;100845.75;5036838;28;20135;-64
2023/07/19 01:47:31;;;;;;;6.80;3.05;;;;;;;17.00;73.25;100852.91;5038259;28;20072;-64
2023/07/19 01:49:56;;;;;;;8.57;3.45;;;;;;;16.91;73.54;100837.56;5036688;28;20043;-64
2023/07/19 01:52:22;;;;;;;8.00;3.30;;;;;;;16.85;73.21;100836.88;5043125;28;20163;-64
2023/07/19 01:54:47;;;;;;;7.63;3.45;;;;;;;16.83;73.04;100833.44;5037393;28;20868;-64
2023/07/19 01:57:13;;;;;;;5.78;2.97;;;;;;;16.79;73.11;100826.63;5038529;28;20116;-63
2023/07/19 01:59:38;;;;;;;6.75;3.22;;;;;;;16.77;73.29;100828.41;5035138;28;20072;-64
2023/07/19 02:02:04;;;;;;;4.45;2.70;;;;;;;16.74;73.46;100822.44;5031529;28;20029;-64
2023/07/19 02:04:30;;;;;;;5.90;3.47;;;;;;;16.71;73.75;100823.34;5039846;28;20037;-64
2023/07/19 02:06:55;;;;;;;4.82;2.92;;;;;;;16.68;74.00;100826.06;5040814;28;20037;-64
2023/07/19 02:09:21;;;;;;;6.07;3.03;;;;;;;16.64;73.83;100821.84;5048482;28;20041;-64
2023/07/19 02:11:46;;;;;;;4.65;2.92;;;;;;;16.61;74.18;100818.50;5039387;28;20041;-63
2023/07/19 02:14:12;;;;;;;5.47;3.00;;;;;;;16.58;74.55;100813.38;5039031;28;20132;-63
2023/07/19 02:16:37;;;;;;;8.43;3.20;;;;;;;16.58;74.66;100816.84;5038964;28;20437;-63
2023/07/19 02:19:06;;;;;;;7.25;3.55;;;;;;;16.58;74.65;100818.59;5039082;28;20429;-64
2023/07/19 02:21:32;;;;;;;6.85;3.42;;;;;;;16.53;75.09;100817.91;5040584;28;20037;-63
2023/07/19 02:23:58;;;;;;;7.43;3.58;;;;;;;16.51;75.02;100817.06;5043927;28;20461;-62
2023/07/19 02:26:26;;;;;;;6.55;3.20;;;;;;;16.49;75.25;100813.66;5041588;28;20053;-61
2023/07/19 02:28:51;;;;;;;5.30;3.28;;;;;;;16.44;75.63;100818.19;5035470;28;20045;-62
2023/07/19 02:31:17;;;;;;;11.20;3.00;;;;;;;16.40;75.66;100816.56;5040695;28;20098;-63
2023/07/19 02:33:42;;;;;;;10.25;4.03;;;;;;;16.38;75.56;100819.22;5038676;28;20666;-64
2023/07/19 02:36:11;;;;;;;8.23;3.78;;;;;;;16.29;76.50;100820.34;5041626;28;20630;-64
2023/07/19 02:38:37;;;;;;;6.78;3.50;;;;;;;16.26;76.50;100806.56;5038855;28;20068;-64
2023/07/19 02:41:02;;;;;;;7.22;3.35;;;;;;;16.19;76.64;100816.31;5037898;28;20549;-63
2023/07/19 02:43:28;;;;;;;7.70;3.75;;;;;;;16.16;76.50;100813.81;5037042;28;20136;-63
2023/07/19 02:45:54;;;;;;;6.50;3.92;;;;;;;16.14;76.24;100805.19;5035154;28;20037;-64
2023/07/19 02:48:20;;;;;;;6.97;3.35;;;;;;;16.08;77.02;100813.19;5038705;28;20033;-63
2023/07/19 02:50:46;;;;;;;6.72;3.50;;;;;;;16.03;77.07;100816.81;5038736;28;20770;-64
2023/07/19 02:53:12;;;;;;;8.73;4.43;;;;;;;15.99;77.35;100813.47;5044020;28;20028;-64
2023/07/19 02:55:38;;;;;;;10.00;4.15;;;;;;;15.93;77.73;100813.66;5044599;28;20029;-64
2023/07/19 02:58:03;;;;;;;7.55;3.50;;;;;;;15.87;78.07;100806.00;5032122;28;20040;-64
2023/07/19 03:00:29;;;;;;;9.40;3.97;;;;;;;15.81;78.63;100810.53;5031680;28;20062;-64
2023/07/19 03:02:55;;;;;;;8.75;3.53;;;;;;;15.80;79.07;100812.28;5035529;28;20573;-60
2023/07/19 03:05:21;;;;;;;8.50;3.92;;;;;;;15.78;79.80;100819.31;5035876;28;20033;-60
2023/07/19 03:07:47;;;;;;;7.68;3.80;;;;;;;15.75;79.99;100815.03;5035052;28;20083;-61
2023/07/19 03:10:12;;;;;;;5.80;3.50;;;;;;;15.76;80.33;100821.13;5035072;28;20739;-62
2023/07/19 03:12:37;;;;;;;8.25;4.10;;;;;;;15.76;80.37;100827.16;5033675;28;20579;-61
2023/07/19 03:15:03;;;;;;;7.93;4.10;;;;;;;15.72;80.88;100830.75;5032344;28;20033;-61
2023/07/19 03:17:28;;;;;;;8.00;3.83;;;;;;;15.70;80.80;100835.16;5035749;28;20037;-62
2023/07/19 03:19:54;;;;;;;6.90;4.57;;;;;;;15.69;81.17;100835.19;5034496;28;20928;-62
2023/07/19 03:22:19;;;;;;;7.70;4.80;;;;;;;15.65;81.99;100836.16;5036738;28;20409;-61
2023/07/19 03:24:45;;;;;;;9.10;4.60;;;;;;;15.54;82.86;100839.06;5034851;28;20498;-61
2023/07/19 03:27:10;;;;;;;6.65;4.78;;;;;;;15.39;83.16;100833.41;5034751;28;20075;-61
2023/07/19 03:29:36;;;;;;;7.10;5.07;;;;;;;15.33;83.16;100836.16;5029919;28;20060;-64
2023/07/19 03:32:02;;;;;;;8.02;4.35;;;;;;;15.32;83.24;100831.84;5033472;28;20508;-64
2023/07/19 03:34:27;;;;;;;7.18;4.85;;;;;;;15.32;83.48;100837.06;5033961;28;20060;-64
2023/07/19 03:36:52;;;;;;;7.47;4.50;;;;;;;15.29;84.46;100834.53;5037292;28;20053;-64
2023/07/19 03:39:18;;;;;;;7.68;4.68;;;;;;;15.32;84.59;100837.91;5043156;28;20045;-64
2023/07/19 03:41:43;;;;;;;6.88;4.20;;;;;;;15.33;84.20;100834.41;5034670;28;20049;-64
2023/07/19 03:44:09;;;;;;;7.82;4.50;;;;;;;15.31;84.61;100831.00;5035331;28;20029;-64
2023/07/19 03:46:34;;;;;;;9.57;4.18;;;;;;;15.33;84.21;100829.22;5028176;28;20530;-64
2023/07/19 03:48:59;;;;;;;7.25;5.05;;;;;;;15.34;84.01;100835.28;5035850;28;20063;-61
2023/07/19 03:51:25;;;;;;;6.15;3.53;;;;;;;15.34;83.92;100830.94;5029537;28;20135;-61
2023/07/19 03:53:50;;;;;;;7.95;4.53;;;;;;;15.38;83.52;100831.69;5035907;28;20036;-61
2023/07/19 03:56:15;;;;;;;8.63;4.50;;;;;;;15.36;83.30;100826.53;5039489;28;20208;-61
2023/07/19 03:58:43;;;;;;;9.63;4.30;;;;;;;15.34;83.23;100823.13;5034856;28;20398;-61
2023/07/19 04:01:08;;;;;;;6.22;4.60;;;;;;;15.34;83.00;100817.06;5045285;28;20025;-61
2023/07/19 04:03:33;;;;;;;10.57;4.78;;;;;;;15.29;83.05;100814.56;5031559;28;20101;-61
2023/07/19 04:05:59;;;;;;;8.68;4.90;;;;;;;15.31;82.61;100818.00;5044374;28;20097;-61
2023/07/19 04:08:25;;;;;;;8.52;4.25;;;;;;;15.34;82.65;100828.34;5039693;28;20108;-61
2023/07/19 04:10:50;;;;;;;7.03;4.25;;;;;;;15.33;82.99;100825.75;5041646;28;20024;-61
2023/07/19 04:13:15;;;;;;;10.68;4.75;;;;;;;15.39;82.42;100825.59;5033356;28;20124;-61
2023/07/19 04:15:40;;;;;;;8.82;4.70;;;;;;;15.41;82.80;100822.03;5035953;28;20037;-61
2023/07/19 04:18:06;;;;;;;8.25;4.13;;;;;;;15.45;82.34;100826.28;5033607;28;20083;-61
2023/07/19 04:20:32;;;;;;;6.88;4.05;;;;;;;15.51;82.27;100820.03;5036948;28;20554;-61
2023/07/19 04:22:58;;;;;;;6.72;4.10;;;;;;;15.56;81.86;100823.38;5033164;28;20112;-61
2023/07/19 04:25:24;;;;;;;5.78;4.18;;;;;;;15.68;81.77;100818.72;5042793;28;20064;-60
2023/07/19 04:27:53;;;;;;;8.43;4.50;;;;;;;15.71;80.98;100820.38;5039435;28;20458;-61
2023/07/19 04:30:19;;;;;;;6.93;4.57;;;;;;;15.80;80.90;100827.06;5033963;28;20067;-61
2023/07/19 04:32:45;;;;;;;9.70;4.85;;;;;;;15.87;80.41;100831.22;5029310;28;20044;-60
2023/07/19 04:35:10;;;;;;;5.88;4.30;;;;;;;15.87;80.67;100824.25;5037356;28;20048;-60
2023/07/19 04:37:38;;;;;;;6.90;3.88;;;;;;;15.91;80.55;100823.25;5034391;28;20748;-60
2023/07/19 04:40:07;;;;;;;6.78;4.45;;;;;;;15.93;80.44;100811.03;5033262;28;20037;-60
2023/07/19 04:42:33;;;;;;;9.05;4.93;;;;;;;15.92;80.94;100816.28;5032240;28;20037;-60
2023/07/19 04:44:58;;;;;;;9.13;4.68;;;;;;;15.91;80.88;100815.44;5031558;28;20043;-61
2023/07/19 04:47:24;;;;;;;9.60;4.80;;;;;;;15.91;81.62;100822.41;5037870;28;20025;-61
2023/07/19 04:49:49;;;;;;;7.40;4.75;;;;;;;15.94;81.45;100819.72;5031572;28;20422;-62
2023/07/19 04:52:14;;;;;;;7.75;4.72;;;;;;;15.89;82.11;100818.97;5039135;28;20045;-63
2023/07/19 04:54:40;;;;;;;9.70;5.32;;;;;;;15.84;82.07;100826.94;5043431;28;20410;-63
2023/07/19 04:57:06;;;;;;;8.00;4.78;;;;;;;15.86;82.71;100832.97;5039266;28;21078;-62
2023/07/19 04:59:31;;;;;;;7.95;4.65;;;;;;;15.95;82.10;100824.03;5047813;28;20053;-63
2023/07/19 05:01:57;;;;;;;7.63;4.90;;;;;;;15.98;81.43;100826.53;5034398;28;20033;-63
2023/07/19 05:04:22;;;;;;;7.72;5.15;;;;;;;16.05;81.15;100820.25;5036568;28;20472;-59
2023/07/19 05:06:49;;;;;;;10.02;4.28;;;;;;;16.10;80.78;100818.34;5036753;28;20041;-63
2023/07/19 05:09:15;;;;;;;10.02;4.85;;;;;;;16.18;80.29;100821.56;5043731;28;20145;-60
2023/07/19 05:11:41;;;;;;;10.10;5.25;;;;;;;16.36;79.88;100830.59;5037800;28;20571;-61
2023/07/19 05:14:06;;;;;;;7.60;5.05;;;;;;;16.50;79.19;100829.28;5033341;28;20059;-61
2023/07/19 05:16:33;;;;;;;7.13;3.72;;;;;;;16.70;78.31;100831.25;5036338;28;20037;-61
2023/07/19 05:18:59;;;;;;;10.43;5.40;;;;;;;16.88;77.52;100829.81;5035669;28;20808;-61
2023/07/19 05:21:24;;;;;;;9.68;4.88;;;;;;;16.97;76.51;100824.28;5033949;28;20042;-61
2023/07/19 05:23:49;;;;;;;9.25;5.05;;;;;;;16.98;76.21;100828.63;5038890;28;20084;-62
2023/07/19 05:26:15;;;;;;;7.65;4.47;;;;;;;17.15;76.05;100827.16;5037605;28;20166;-62
2023/07/19 05:28:40;;;;;;;7.93;4.25;;;;;;;17.23;75.27;100827.72;5035614;28;20021;-62
2023/07/19 05:31:08;;;;;;;9.30;5.15;;;;;;;17.31;75.31;100832.66;5035474;28;20045;-62
2023/07/19 05:33:34;;;;;;;8.85;5.05;;;;;;;17.51;75.24;100829.38;5036306;28;20033;-65
2023/07/19 05:36:02;;;;;;;10.80;5.40;;;;;;;17.61;74.83;100841.19;5034284;28;20044;-62
2023/07/19 05:38:29;;;;;;;6.57;4.60;;;;;;;17.80;74.37;100832.63;5043047;28;20029;-64
2023/07/19 05:41:01;;;;;;;7.38;4.28;;;;;;;17.78;74.49;100838.84;5043903;28;20473;-65
2023/07/19 05:43:27;;;;;;;8.23;4.78;;;;;;;17.80;74.23;100837.88;5035711;28;20049;-64
2023/07/19 05:45:52;;;;;;;8.98;4.45;;;;;;;17.87;73.88;100844.59;5042389;28;20143;-64
2023/07/19 05:48:18;;;;;;;12.02;4.93;;;;;;;17.85;73.48;100846.41;5042516;28;20117;-64
2023/07/19 05:50:43;;;;;;;8.90;5.13;;;;;;;17.91;73.91;100851.44;5043346;28;20029;-64
2023/07/19 05:53:09;;;;;;;9.90;4.93;;;;;;;17.97;73.64;100859.03;5042288;28;20095;-64
2023/07/19 05:55:34;;;;;;;8.98;4.13;;;;;;;17.86;74.17;100869.06;5042260;28;20379;-60
2023/07/19 05:57:59;;;;;;;10.18;4.10;;;;;;;17.94;74.40;100860.91;5031967;28;20033;-61
2023/07/19 06:00:28;;;;;;;6.60;4.00;;;;;;;17.99;73.75;100855.53;5039411;28;20127;-64
2023/07/19 06:02:57;;;;;;;7.20;4.05;;;;;;;18.06;73.50;100865.69;5041548;28;20082;-66
2023/07/19 06:05:24;;;;;;;5.22;3.63;;;;;;;18.17;73.24;100865.28;5038940;28;20100;-64
2023/07/19 06:07:50;;;;;;;7.05;4.20;;;;;;;18.26;72.91;100871.03;5034514;28;20091;-60
2023/07/19 06:10:16;;;;;;;7.10;4.13;;;;;;;18.35;72.87;100848.88;5032494;28;20891;-61
2023/07/19 06:12:43;;;;;;;7.63;4.00;;;;;;;18.35;70.19;100826.19;5035028;28;20760;-63
2023/07/19 06:15:09;;;;;;;6.05;3.80;;;;;;;18.43;70.55;100841.59;5037221;28;20043;-64
2023/07/19 06:17:34;;;;;;;10.43;4.43;;;;;;;18.44;72.74;100848.53;5046354;28;20037;-62
2023/07/19 06:20:00;;;;;;;12.15;4.40;;;;;;;18.53;72.44;100850.78;5040540;28;20414;-63
2023/07/19 06:22:25;;;;;;;9.20;4.22;;;;;;;18.76;72.04;100860.34;5038909;28;20043;-63
2023/07/19 06:24:50;;;;;;;9.90;4.38;;;;;;;19.00;70.33;100830.53;5044195;28;20791;-60
2023/07/19 06:27:16;;;;;;;5.40;3.70;;;;;;;19.17;69.02;100820.22;5033381;28;20041;-60
2023/07/19 06:29:43;;;;;;;6.35;3.85;;;;;;;19.39;68.36;100805.25;5035153;28;20045;-60
2023/07/19 06:32:08;;;;;;;9.75;3.78;;;;;;;19.55;66.82;100793.19;5032995;28;20028;-60
2023/07/19 06:34:33;;;;;;;5.10;3.50;;;;;;;19.73;65.92;100778.38;5031188;28;20071;-61
2023/07/19 06:36:59;;;;;;;5.97;3.75;;;;;;;19.89;65.63;100778.56;5031019;28;20044;-60
2023/07/19 06:39:24;;;;;;;9.70;3.90;;;;;;;19.91;63.49;100753.09;5034985;28;20139;-60
2023/07/19 06:41:50;;;;;;;6.28;3.03;;;;;;;19.95;64.04;100780.88;5033429;28;20049;-60
2023/07/19 06:44:15;;;;;;;5.45;3.33;;;;;;;19.96;64.27;100791.31;5032194;28;20082;-60
2023/07/19 06:46:40;;;;;;;6.90;3.60;;;;;;;19.93;64.17;100787.97;5031330;28;20048;-60
2023/07/19 06:49:06;;;;;;;7.53;3.80;;;;;;;19.88;63.10;100775.09;5031721;28;20037;-60
2023/07/19 06:51:31;;;;;;;10.68;3.88;;;;;;;19.85;63.33;100777.00;5031184;28;20746;-60
2023/07/19 06:53:56;;;;;;;10.18;4.57;;;;;;;19.77;65.87;100818.44;5040335;28;20032;-60
2023/07/19 06:56:22;;;;;;;9.98;4.10;;;;;;;19.80;65.51;100808.69;5039654;28;20110;-62
2023/07/19 06:58:49;;;;;;;9.43;3.70;;;;;;;19.82;63.81;100783.25;5031559;28;20041;-63
2023/07/19 07:01:14;;;;;;;5.90;3.35;;;;;;;19.94;63.47;100785.31;5034358;28;20045;-63
2023/07/19 07:03:39;;;;;;;7.28;3.42;;;;;;;20.05;63.33;100784.78;5040205;28;20048;-63
2023/07/19 07:06:05;;;;;;;8.27;3.50;;;;;;;20.05;63.72;100793.53;5040190;28;20041;-63
2023/07/19 07:08:31;;;;;;;8.55;3.50;;;;;;;20.04;62.46;100777.81;5038271;28;20045;-62
2023/07/19 07:10:59;;;;;;;8.32;3.85;;;;;;;20.10;62.56;100777.53;5044489;28;20312;-63
2023/07/19 07:13:24;;;;;;;7.85;3.45;;;;;;;20.20;62.08;100772.72;5030446;28;20396;-63
2023/07/19 07:15:52;;;;;;;8.70;3.40;;;;;;;20.33;61.77;100761.56;5033229;28;20048;-63
2023/07/19 07:18:18;;;;;;;10.48;3.53;;;;;;;20.54;61.03;100757.03;5030263;28;20049;-63
2023/07/19 07:20:43;;;;;;;6.00;3.38;;;;;;;20.79;59.98;100746.16;5036050;28;20045;-63
2023/07/19 07:23:09;;;;;;;9.02;3.25;;;;;;;20.99;59.22;100741.59;5035648;28;20033;-60
2023/07/19 07:25:35;;;;;;;8.55;3.50;;;;;;;21.12;58.88;100750.56;5031871;28;20045;-60
2023/07/19 07:28:01;;;;;;;5.75;3.35;;;;;;;21.08;58.60;100751.63;5035130;28;20101;-62
2023/07/19 07:30:26;;;;;;;8.48;3.38;;;;;;;20.94;58.87;100769.91;5037348;28;20037;-60
2023/07/19 07:32:52;;;;;;;9.63;3.10;;;;;;;20.92;59.49;100770.91;5029035;28;20037;-60
2023/07/19 07:35:18;;;;;;;8.38;2.67;;;;;;;20.99;59.15;100767.03;5033913;28;20068;-64
2023/07/19 07:37:43;;;;;;;10.68;3.10;;;;;;;20.99;58.64;100754.72;5036171;28;20026;-63
2023/07/19 07:40:10;;;;;;;9.65;3.60;;;;;;;21.00;58.02;100743.31;5032578;28;20040;-63
2023/07/19 07:42:39;;;;;;;5.53;3.63;;;;;;;21.00;57.85;100756.44;5032912;28;20048;-64
2023/07/19 07:45:05;;;;;;;12.73;3.50;;;;;;;21.01;58.44;100762.56;5033242;28;20099;-64
2023/07/19 07:47:31;;;;;;;6.30;3.28;;;;;;;20.83;57.81;100748.59;5029155;28;20087;-63
2023/07/19 07:49:57;;;;;;;11.55;4.07;;;;;;;20.70;59.09;100760.63;5033681;28;20055;-60
2023/07/19 07:52:22;;;;;;;8.23;3.67;;;;;;;20.66;61.24;100801.09;5033317;28;20041;-60
2023/07/19 07:54:49;;;;;;;9.02;4.13;;;;;;;20.68;62.41;100810.59;5027826;28;20069;-60
2023/07/19 07:57:14;;;;;;;7.50;3.50;;;;;;;20.94;62.45;100806.69;5033693;28;20041;-60
2023/07/19 07:59:40;;;;;;;13.18;4.38;;;;;;;21.13;60.71;100775.94;5032757;28;20072;-59
2023/07/19 08:02:06;;;;;;;9.02;3.20;;;;;;;21.47;60.19;100772.38;5026858;28;20037;-60
2023/07/19 08:04:31;;;;;;;6.97;3.42;;;;;;;21.66;58.65;100741.56;5028301;28;20095;-60
2023/07/19 08:06:57;;;;;;;9.65;3.65;;;;;;;21.86;57.04;100729.94;5030182;28;20056;-61
2023/07/19 08:09:22;;;;;;;8.05;3.85;;;;;;;21.88;54.92;100698.28;5036839;28;20047;-61
2023/07/19 08:11:48;;;;;;;9.43;3.63;;;;;;;22.07;55.22;100705.03;5035710;28;20856;-62
2023/07/19 08:14:14;;;;;;;9.60;3.55;;;;;;;22.17;55.00;100714.13;5032090;28;20275;-62
2023/07/19 08:16:39;;;;;;;11.00;4.00;;;;;;;22.16;54.46;100696.63;5029514;28;20116;-61
2023/07/19 08:19:04;;;;;;;6.15;2.95;;;;;;;22.30;55.04;100706.34;5030878;28;20095;-61
2023/07/19 08:21:30;;;;;;;12.02;3.60;;;;;;;22.51;54.61;100701.66;5033521;28;20121;-61
2023/07/19 08:23:55;;;;;;;9.23;2.90;;;;;;;22.67;54.08;100699.84;5036909;28;20191;-61
2023/07/19 08:26:24;;;;;;;6.03;3.47;;;;;;;22.88;53.71;100703.81;5030818;28;20033;-61
2023/07/19 08:28:50;;;;;;;6.18;3.42;;;;;;;22.98;52.32;100688.31;5029142;28;20032;-61
2023/07/19 08:31:16;;;;;;;8.85;3.60;;;;;;;23.03;52.67;100699.41;5031966;28;20029;-61
2023/07/19 08:33:41;;;;;;;8.57;4.20;;;;;;;23.00;52.80;100702.25;5027705;28;20041;-61
2023/07/19 08:36:07;;;;;;;9.65;3.13;;;;;;;22.99;52.76;100706.66;5032416;28;20066;-61
2023/07/19 08:38:33;;;;;;;8.35;4.00;;;;;;;23.08;52.70;100699.97;5030504;28;20047;-61
2023/07/19 08:41:02;;;;;;;6.82;3.13;;;;;;;23.24;52.41;100695.50;5030348;28;20505;-61
2023/07/19 08:43:29;;;;;;;8.88;3.63;;;;;;;23.48;51.97;100693.97;5030400;28;20037;-61
2023/07/19 08:45:55;;;;;;;5.63;3.35;;;;;;;23.51;51.23;100671.84;5038427;28;20417;-61
2023/07/19 08:48:21;;;;;;;9.07;3.47;;;;;;;23.58;50.92;100667.84;5028209;28;20038;-61
2023/07/19 08:50:58;;;;;;;10.98;4.25;;;;;;;23.63;49.94;100660.50;5031995;28;20041;-61
2023/07/19 08:53:25;;;;;;;7.35;3.58;;;;;;;23.66;50.63;100673.50;5036512;28;20033;-62
2023/07/19 08:55:51;;;;;;;12.52;3.83;;;;;;;23.61;50.46;100662.38;5033452;28;20182;-62
2023/07/19 08:58:17;;;;;;;8.13;4.05;;;;;;;23.73;50.48;100664.22;5027042;28;20885;-59
2023/07/19 09:00:45;;;;;;;9.35;4.50;;;;;;;23.74;49.57;100653.59;5026176;28;20045;-61
2023/07/19 09:03:11;;;;;;;11.63;3.67;;;;;;;23.73;49.87;100669.50;5026415;28;20136;-61
2023/07/19 09:05:38;;;;;;;9.98;4.05;;;;;;;23.76;49.92;100667.53;5033245;28;20793;-61
2023/07/19 09:08:04;;;;;;;8.40;3.78;;;;;;;23.59;50.63;100677.47;5039207;28;20036;-61
2023/07/19 09:10:30;;;;;;;10.65;4.00;;;;;;;23.72;49.21;100649.34;5027700;28;20100;-60
2023/07/19 09:12:55;;;;;;;11.65;4.32;;;;;;;23.82;49.61;100648.66;5037125;28;20095;-61
2023/07/19 09:15:20;;;;;;;9.15;3.97;;;;;;;24.06;49.12;100638.31;5030912;28;20041;-61
2023/07/19 09:17:47;;;;;;;8.68;3.75;;;;;;;24.21;48.82;100637.28;5028864;28;20111;-61
2023/07/19 09:20:15;;;;;;;8.95;3.78;;;;;;;24.38;48.53;100644.94;5032101;28;20033;-61
2023/07/19 09:22:41;;;;;;;11.52;4.03;;;;;;;24.41;48.31;100628.88;5038080;28;20060;-60
2023/07/19 09:25:09;;;;;;;10.85;3.95;;;;;;;24.54;47.44;100618.31;5029239;28;20368;-61
2023/07/19 09:27:36;;;;;;;12.82;4.40;;;;;;;24.39;47.93;100627.28;5033973;28;20045;-61
2023/07/19 09:30:03;;;;;;;12.50;4.13;;;;;;;24.41;48.03;100636.78;5032481;28;20087;-60
2023/07/19 09:32:29;;;;;;;10.50;4.38;;;;;;;24.18;48.42;100642.78;5037162;28;20036;-60
2023/07/19 09:34:56;;;;;;;9.90;3.92;;;;;;;24.23;48.40;100653.88;5030090;28;20033;-61
2023/07/19 09:37:22;;;;;;;11.45;3.63;;;;;;;24.23;47.62;100634.53;5034503;28;20036;-61
2023/07/19 09:39:48;;;;;;;9.95;2.97;;;;;;;24.20;46.94;100625.03;5032042;28;20765;-60
2023/07/19 09:42:14;;;;;;;6.05;3.03;;;;;;;24.28;46.18;100617.44;5035793;28;20037;-59
2023/07/19 09:44:40;;;;;;;7.97;3.20;;;;;;;24.07;46.56;100620.66;5037539;28;20060;-60
2023/07/19 09:47:09;;;;;;;10.80;3.05;;;;;;;24.28;46.37;100619.25;5036802;28;20036;-63
2023/07/19 09:49:36;;;;;;;8.05;2.83;;;;;;;24.52;45.78;100604.38;5032203;28;20033;-62
2023/07/19 09:52:03;;;;;;;7.60;2.80;;;;;;;24.44;45.41;100604.03;5039246;28;20052;-62
2023/07/19 09:54:31;;;;;;;6.75;2.95;;;;;;;24.29;46.28;100621.78;5043784;28;20164;-60
2023/07/19 09:56:57;;;;;;;8.95;2.85;;;;;;;24.08;46.57;100623.19;5040542;28;20124;-59
2023/07/19 09:59:27;;;;;;;7.10;3.30;;;;;;;23.99;46.83;100635.22;5033241;28;20029;-59
2023/07/19 10:01:53;;;;;;;7.60;3.83;;;;;;;23.91;47.06;100632.22;5033127;28;20082;-59
2023/07/19 10:04:29;;;;;;;7.05;3.10;;;;;;;23.88;47.97;100648.25;5034975;28;20406;-62
2023/07/19 10:07:07;;;;;;;9.88;2.80;;;;;;;24.10;46.88;100629.25;5036241;28;20547;-62
2023/07/19 10:09:44;;;;;;;7.10;2.60;;;;;;;24.33;46.31;100630.34;5041628;28;20052;-62
2023/07/19 10:12:15;;;;;;;7.72;2.90;;;;;;;24.27;45.70;100614.91;5034175;28;20033;-62
2023/07/19 10:15:01;;;;;;;7.40;2.63;;;;;;;24.27;46.06;100613.09;5040922;28;20125;-62
2023/07/19 10:17:29;;;;;;;7.90;3.20;;;;;;;24.17;45.84;100616.44;5040098;28;20167;-61
2023/07/19 10:20:05;;;;;;;6.82;3.03;;;;;;;24.31;45.82;100616.41;5042597;28;20032;-62
2023/07/19 10:22:52;;;;;;;8.35;3.40;;;;;;;24.44;46.09;100618.09;5041137;28;20045;-62
2023/07/19 10:25:34;;;;;;;5.53;3.03;;;;;;;24.54;45.39;100602.47;5038193;28;20034;-62
2023/07/19 10:28:08;;;;;;;5.88;2.88;;;;;;;24.66;45.95;100616.63;5041955;28;20497;-63
2023/07/19 10:30:47;;;;;;;8.75;3.17;;;;;;;24.38;46.49;100629.06;5036437;28;20128;-63
2023/07/19 10:33:19;;;;;;;9.18;3.08;;;;;;;24.39;46.60;100627.28;5039026;28;20529;-61
2023/07/19 10:35:45;;;;;;;5.20;2.53;;;;;;;24.50;46.14;100614.19;5035676;28;20048;-61
2023/07/19 10:38:17;;;;;;;10.48;3.60;;;;;;;24.90;45.47;100607.88;5045802;28;20020;-61
2023/07/19 10:40:45;;;;;;;8.27;3.05;;;;;;;25.34;45.62;100609.16;5040352;28;20079;-62
2023/07/19 10:43:11;;;;;;;9.02;3.65;;;;;;;25.73;44.23;100585.13;5039211;28;20033;-61
2023/07/19 10:45:38;;;;;;;8.23;3.10;;;;;;;25.80;43.90;100578.41;5037165;28;20053;-61
2023/07/19 10:48:04;;;;;;;8.23;3.28;;;;;;;25.69;43.35;100577.50;5031677;28;20061;-61
2023/07/19 10:50:29;;;;;;;6.80;3.00;;;;;;;25.91;43.61;100580.25;5037077;28;20024;-63
2023/07/19 10:52:55;;;;;;;12.40;4.28;;;;;;;26.15;43.14;100581.09;5037122;28;20033;-60
2023/07/19 10:55:20;;;;;;;6.82;3.88;;;;;;;26.00;43.91;100584.88;5033007;28;20922;-61
2023/07/19 10:57:46;;;;;;;10.55;3.63;;;;;;;25.85;44.46;100602.75;5034608;28;20056;-63
2023/07/19 11:00:13;;;;;;;10.20;3.78;;;;;;;26.02;44.52;100601.47;5033268;28;20041;-60
2023/07/19 11:02:42;;;;;;;10.60;3.80;;;;;;;26.16;42.88;100569.53;5033017;28;20461;-60
2023/07/19 11:05:08;;;;;;;7.22;3.42;;;;;;;26.23;43.57;100581.34;5031251;28;20169;-61
2023/07/19 11:07:35;;;;;;;10.48;3.80;;;;;;;26.39;43.20;100583.69;5030090;28;20037;-60
2023/07/19 11:10:01;;;;;;;9.90;3.83;;;;;;;26.47;42.96;100579.47;5034263;28;20036;-60
2023/07/19 11:12:27;;;;;;;7.85;3.33;;;;;;;26.38;43.32;100584.63;5035953;28;20037;-60
2023/07/19 11:14:58;;;;;;;12.27;3.42;;;;;;;26.11;44.80;100603.47;5036422;28;20041;-60
2023/07/19 11:17:28;;;;;;;8.15;3.85;;;;;;;25.81;45.38;100611.03;5036020;28;20024;-59
2023/07/19 11:19:54;;;;;;;11.25;4.22;;;;;;;25.89;45.41;100612.13;5036863;28;20123;-62